createdAt,value
2019-03-08T00:00:54.565Z,7.90
2019-03-08T00:03:22.043Z,7.90
2019-03-08T00:05:49.613Z,7.90
2019-03-08T00:08:17.161Z,7.90
2019-03-08T00:10:44.642Z,7.90
2019-03-08T00:13:12.099Z,7.90
2019-03-08T00:15:39.566Z,7.90
2019-03-08T00:18:07.133Z,7.80
2019-03-08T00:20:35.397Z,7.80
2019-03-08T00:23:03.784Z,7.80
2019-03-08T00:25:32.026Z,7.90
2019-03-08T00:27:59.487Z,7.90
2019-03-08T00:30:26.977Z,7.80
2019-03-08T00:32:54.450Z,7.80
2019-03-08T00:35:21.928Z,7.80
2019-03-08T00:37:49.373Z,7.80
2019-03-08T00:40:16.843Z,7.80
2019-03-08T00:42:44.321Z,7.80
2019-03-08T00:45:15.411Z,7.80
2019-03-08T00:47:43.623Z,7.70
2019-03-08T00:50:10.358Z,7.80
2019-03-08T00:52:38.853Z,7.70
2019-03-08T00:55:07.110Z,7.70
2019-03-08T00:57:34.583Z,7.80
2019-03-08T01:00:02.042Z,7.80
2019-03-08T01:02:29.540Z,7.80
2019-03-08T01:04:57.792Z,7.80
2019-03-08T01:07:25.254Z,7.80
2019-03-08T01:09:52.725Z,7.80
2019-03-08T01:12:20.199Z,7.80
2019-03-08T01:14:47.666Z,7.80
2019-03-08T01:17:15.210Z,7.80
2019-03-08T01:19:42.683Z,7.80
2019-03-08T01:22:10.948Z,7.70
2019-03-08T01:24:38.417Z,7.70
2019-03-08T01:27:05.882Z,7.70
2019-03-08T01:29:33.358Z,7.70
2019-03-08T01:32:01.591Z,7.70
2019-03-08T01:34:29.175Z,7.70
2019-03-08T01:36:56.626Z,7.70
2019-03-08T01:39:24.085Z,7.70
2019-03-08T01:41:51.670Z,7.70
2019-03-08T01:44:19.341Z,7.70
2019-03-08T01:46:46.887Z,7.70
2019-03-08T01:49:14.459Z,7.80
2019-03-08T01:51:41.914Z,7.80
2019-03-08T01:54:09.494Z,7.80
2019-03-08T01:56:36.959Z,7.80
2019-03-08T01:59:04.513Z,7.80
2019-03-08T02:01:32.020Z,7.80
2019-03-08T02:03:59.528Z,7.80
2019-03-08T02:06:27.002Z,7.80
2019-03-08T02:08:55.238Z,7.70
2019-03-08T02:11:22.704Z,7.70
2019-03-08T02:13:50.169Z,7.70
2019-03-08T02:16:17.655Z,7.70
2019-03-08T02:18:45.125Z,7.70
2019-03-08T02:21:12.691Z,7.70
2019-03-08T02:23:40.148Z,7.60
2019-03-08T02:26:07.609Z,7.60
2019-03-08T02:28:35.069Z,7.50
2019-03-08T02:31:02.625Z,7.40
2019-03-08T02:33:30.086Z,7.40
2019-03-08T02:35:57.540Z,7.40
2019-03-08T02:38:25.123Z,7.40
2019-03-08T02:40:54.096Z,7.50
2019-03-08T02:43:21.573Z,7.50
2019-03-08T02:45:49.142Z,7.60
2019-03-08T02:48:16.594Z,7.60
2019-03-08T02:50:44.067Z,7.60
2019-03-08T02:53:11.633Z,7.60
2019-03-08T02:55:39.553Z,7.50
2019-03-08T02:58:07.018Z,7.60
2019-03-08T03:00:35.289Z,7.60
2019-03-08T03:03:03.721Z,7.60
2019-03-08T03:05:31.285Z,7.60
2019-03-08T03:07:58.743Z,7.60
2019-03-08T03:10:26.209Z,7.60
2019-03-08T03:12:53.657Z,7.60
2019-03-08T03:15:21.145Z,7.50
2019-03-08T03:17:48.686Z,7.60
2019-03-08T03:20:16.155Z,7.60
2019-03-08T03:22:43.628Z,7.60
2019-03-08T03:25:11.202Z,7.60
2019-03-08T03:27:38.751Z,7.60
2019-03-08T03:30:12.173Z,7.60
2019-03-08T03:32:40.400Z,7.60
2019-03-08T03:35:07.865Z,7.60
2019-03-08T03:37:35.326Z,7.60
2019-03-08T03:40:04.558Z,7.60
2019-03-08T03:42:32.115Z,7.60
2019-03-08T03:44:59.563Z,7.60
2019-03-08T03:47:27.077Z,7.60
2019-03-08T03:49:55.323Z,7.60
2019-03-08T03:52:22.789Z,7.60
2019-03-08T03:54:50.347Z,7.60
2019-03-08T03:57:19.307Z,7.60
2019-03-08T03:59:46.779Z,7.60
2019-03-08T04:02:14.250Z,7.60
2019-03-08T04:04:41.710Z,7.60
2019-03-08T04:07:09.171Z,7.60
2019-03-08T04:09:37.400Z,7.60
2019-03-08T04:12:04.933Z,7.60
2019-03-08T04:14:32.510Z,7.60
2019-03-08T04:17:00.751Z,7.60
2019-03-08T04:19:28.257Z,7.60
2019-03-08T04:21:56.494Z,7.50
2019-03-08T04:24:24.032Z,7.60
2019-03-08T04:26:51.500Z,7.50
2019-03-08T04:29:19.005Z,7.50
2019-03-08T04:31:46.475Z,7.60
2019-03-08T04:34:13.945Z,7.50
2019-03-08T04:36:42.201Z,7.50
2019-03-08T04:39:09.677Z,7.50
2019-03-08T04:41:37.234Z,7.40
2019-03-08T04:44:05.472Z,7.40
2019-03-08T04:46:32.946Z,7.40
2019-03-08T04:49:00.433Z,7.30
2019-03-08T04:51:27.890Z,7.30
2019-03-08T04:53:55.362Z,7.30
2019-03-08T04:56:22.825Z,7.30
2019-03-08T04:58:50.293Z,7.30
2019-03-08T05:01:17.759Z,7.30
2019-03-08T05:03:45.303Z,7.30
2019-03-08T05:06:12.767Z,7.30
2019-03-08T05:08:40.241Z,7.30
2019-03-08T05:11:08.498Z,7.40
2019-03-08T05:13:35.972Z,7.30
2019-03-08T05:16:03.857Z,7.40
2019-03-08T05:18:32.991Z,7.40
2019-03-08T05:20:59.590Z,7.40
2019-03-08T05:23:27.054Z,7.40
2019-03-08T05:25:54.613Z,7.40
2019-03-08T05:28:22.077Z,7.30
2019-03-08T05:30:49.523Z,7.40
2019-03-08T05:33:17.010Z,7.30
2019-03-08T05:35:44.475Z,7.20
2019-03-08T05:38:11.924Z,7.20
2019-03-08T05:40:39.381Z,7.20
2019-03-08T05:43:06.845Z,7.10
2019-03-08T05:45:34.414Z,7.10
2019-03-08T05:48:01.973Z,7.10
2019-03-08T05:50:29.434Z,7.10
2019-03-08T05:52:56.890Z,7.10
2019-03-08T05:55:24.371Z,7.00
2019-03-08T05:57:51.845Z,7.00
2019-03-08T06:00:20.877Z,7.00
2019-03-08T06:02:48.389Z,7.00
2019-03-08T06:05:16.630Z,7.10
2019-03-08T06:07:44.097Z,7.10
2019-03-08T06:10:31.354Z,7.10
2019-03-08T06:12:59.586Z,7.10
2019-03-08T06:15:27.073Z,7.10
2019-03-08T06:17:56.370Z,7.10
2019-03-08T06:20:22.148Z,7.10
2019-03-08T06:22:49.617Z,7.10
2019-03-08T06:25:17.086Z,7.10
2019-03-08T06:27:44.553Z,7.00
2019-03-08T06:30:12.064Z,7.00
2019-03-08T06:32:39.627Z,7.00
2019-03-08T06:35:07.883Z,7.00
2019-03-08T06:37:35.345Z,7.00
2019-03-08T06:40:04.557Z,7.00
2019-03-08T06:42:32.003Z,7.00
2019-03-08T06:44:59.481Z,7.00
2019-03-08T06:47:27.725Z,7.10
2019-03-08T06:49:55.188Z,7.10
2019-03-08T06:52:22.696Z,7.10
2019-03-08T06:54:50.169Z,7.10
2019-03-08T06:57:20.353Z,7.20
2019-03-08T06:59:46.655Z,7.30
2019-03-08T07:02:14.138Z,7.20
2019-03-08T07:04:41.590Z,7.30
2019-03-08T07:07:09.093Z,6.90
2019-03-08T07:09:36.665Z,6.50
2019-03-08T07:12:04.923Z,6.30
2019-03-08T07:14:32.382Z,6.30
2019-03-08T07:16:59.859Z,6.30
2019-03-08T07:19:27.427Z,6.30
2019-03-08T07:21:55.875Z,6.30
2019-03-08T07:27:31.546Z,6.40
2019-03-08T07:29:59.450Z,6.40
2019-03-08T07:32:32.677Z,6.40
2019-03-08T07:35:02.731Z,6.40
2019-03-08T07:37:31.023Z,6.40
2019-03-08T07:39:58.496Z,6.40
2019-03-08T07:42:32.491Z,6.40
2019-03-08T07:45:05.559Z,6.40
2019-03-08T07:47:35.632Z,6.50
2019-03-08T07:50:15.004Z,6.50
2019-03-08T07:52:46.166Z,6.50
2019-03-08T07:55:13.631Z,6.60
2019-03-08T07:57:46.878Z,6.70
2019-03-08T08:00:19.118Z,6.90
2019-03-08T08:02:47.527Z,6.90
2019-03-08T08:05:21.621Z,7.00
2019-03-08T08:07:51.666Z,7.00
2019-03-08T08:10:24.529Z,7.10
2019-03-08T08:13:06.876Z,7.10
2019-03-08T08:15:36.125Z,7.30
2019-03-08T08:18:04.370Z,7.50
2019-03-08T08:20:46.669Z,7.40
2019-03-08T08:23:24.031Z,7.60
2019-03-08T08:25:54.206Z,7.70
2019-03-08T08:28:27.467Z,7.60
2019-03-08T08:33:56.715Z,7.80
2019-03-08T08:36:29.654Z,7.90
2019-03-08T08:38:59.117Z,7.80
2019-03-08T08:41:37.288Z,7.80
2019-03-08T08:44:07.677Z,7.80
2019-03-08T08:46:40.881Z,7.80
2019-03-08T08:49:18.240Z,7.70
2019-03-08T08:51:52.212Z,7.80
2019-03-08T08:54:37.527Z,7.90
2019-03-08T08:57:09.332Z,8.00
2019-03-08T08:59:36.803Z,7.90
2019-03-08T09:02:06.217Z,8.00
2019-03-08T09:04:36.265Z,7.90
2019-03-08T09:10:14.791Z,8.40
2019-03-08T09:15:37.373Z,8.10
2019-03-08T09:18:21.620Z,7.80
2019-03-08T09:20:50.010Z,7.80
2019-03-08T09:23:20.239Z,8.00
2019-03-08T09:25:51.335Z,8.20
2019-03-08T09:28:24.100Z,8.60
2019-03-08T09:31:06.467Z,8.60
2019-03-08T09:36:31.836Z,8.60
2019-03-08T09:39:05.782Z,8.90
2019-03-08T09:41:33.824Z,8.90
2019-03-08T09:44:11.955Z,8.50
2019-03-08T09:46:44.005Z,8.50
2019-03-08T09:49:17.254Z,8.80
2019-03-08T09:52:00.496Z,8.80
2019-03-08T09:54:48.717Z,9.00
2019-03-08T09:57:30.259Z,9.10
2019-03-08T10:03:03.818Z,9.10
2019-03-08T10:05:35.494Z,9.10
2019-03-08T10:08:07.236Z,9.10
2019-03-08T10:10:35.669Z,9.10
2019-03-08T10:13:08.226Z,9.40
2019-03-08T10:15:35.690Z,9.50
2019-03-08T10:18:22.487Z,9.60
2019-03-08T10:20:55.580Z,9.60
2019-03-08T10:23:24.236Z,9.50
2019-03-08T10:25:57.264Z,9.50
2019-03-08T10:28:25.704Z,9.60
2019-03-08T10:30:55.134Z,9.60
2019-03-08T10:33:46.166Z,9.50
2019-03-08T10:36:10.756Z,9.40
2019-03-08T10:38:44.012Z,9.00
2019-03-08T10:41:27.131Z,9.00
2019-03-08T10:43:54.601Z,9.00
2019-03-08T10:46:39.699Z,9.40
2019-03-08T10:49:21.830Z,9.30
2019-03-08T10:51:50.075Z,9.80
2019-03-08T10:54:22.132Z,9.90
2019-03-08T10:56:53.522Z,10.10
2019-03-08T10:59:23.828Z,10.40
2019-03-08T11:01:52.500Z,9.90
2019-03-08T11:04:38.828Z,9.90
2019-03-08T11:07:07.240Z,9.80
2019-03-08T11:09:47.438Z,10.30
2019-03-08T11:15:09.967Z,10.50
2019-03-08T11:17:53.840Z,11.10
2019-03-08T11:20:22.342Z,11.10
2019-03-08T11:22:49.803Z,11.20
2019-03-08T11:25:21.901Z,11.10
2019-03-08T11:27:53.740Z,10.90
2019-03-08T11:30:21.824Z,10.90
2019-03-08T11:32:49.807Z,10.60
2019-03-08T11:35:22.831Z,10.50
2019-03-08T11:37:54.132Z,10.30
2019-03-08T11:43:17.574Z,10.60
2019-03-08T11:45:47.684Z,10.60
2019-03-08T11:48:34.845Z,10.30
2019-03-08T11:51:04.138Z,10.10
2019-03-08T11:53:45.442Z,9.90
2019-03-08T11:56:19.602Z,9.80
2019-03-08T11:58:49.524Z,9.80
2019-03-08T12:01:22.778Z,9.90
2019-03-08T12:03:54.101Z,9.70
2019-03-08T12:06:21.557Z,9.70
2019-03-08T12:09:07.736Z,9.60
2019-03-08T12:11:35.194Z,9.80
2019-03-08T12:14:22.262Z,9.80
2019-03-08T12:16:49.747Z,10.20
2019-03-08T12:22:12.511Z,10.10
2019-03-08T12:27:53.161Z,9.80
2019-03-08T12:30:22.052Z,9.80
2019-03-08T12:32:51.123Z,10.00
2019-03-08T12:35:34.234Z,10.20
2019-03-08T12:38:02.469Z,10.00
2019-03-08T12:40:44.829Z,10.00
2019-03-08T12:43:19.401Z,10.50
2019-03-08T12:45:56.774Z,10.50
2019-03-08T12:48:40.880Z,10.30
2019-03-08T12:51:08.804Z,10.30
2019-03-08T12:53:54.175Z,10.30
2019-03-08T12:56:27.227Z,10.20
2019-03-08T12:58:55.497Z,10.30
2019-03-08T13:01:28.697Z,10.20
2019-03-08T13:04:03.645Z,10.20
2019-03-08T13:06:36.904Z,10.40
2019-03-08T13:09:07.969Z,10.40
2019-03-08T13:11:35.450Z,10.40
2019-03-08T13:14:04.491Z,10.40
2019-03-08T13:16:32.051Z,10.40
2019-03-08T13:18:59.611Z,10.30
2019-03-08T13:21:27.183Z,10.30
2019-03-08T13:23:56.214Z,10.20
2019-03-08T13:26:23.697Z,10.10
2019-03-08T13:28:51.177Z,10.20
2019-03-08T13:31:18.661Z,10.20
2019-03-08T13:33:46.133Z,10.20
2019-03-08T13:36:13.601Z,10.20
2019-03-08T13:38:41.156Z,10.20
2019-03-08T13:41:09.395Z,10.10
2019-03-08T13:43:36.871Z,10.10
2019-03-08T13:46:04.337Z,10.00
2019-03-08T13:48:31.801Z,9.90
2019-03-08T13:50:59.281Z,10.00
2019-03-08T13:53:26.843Z,10.00
2019-03-08T13:55:55.081Z,10.20
2019-03-08T13:58:22.573Z,10.20
2019-03-08T14:00:50.150Z,10.20
2019-03-08T14:03:17.716Z,10.10
2019-03-08T14:05:45.951Z,10.00
2019-03-08T14:08:13.394Z,10.00
2019-03-08T14:10:40.884Z,9.90
2019-03-08T14:13:08.370Z,9.90
2019-03-08T14:15:35.854Z,10.00
2019-03-08T14:18:04.296Z,10.00
2019-03-08T14:20:31.773Z,10.00
2019-03-08T14:22:59.242Z,9.90
2019-03-08T14:25:26.696Z,9.80
2019-03-08T14:27:54.162Z,9.80
2019-03-08T14:30:23.552Z,10.00
2019-03-08T14:32:51.089Z,10.00
2019-03-08T14:35:18.563Z,9.80
2019-03-08T14:37:46.029Z,9.80
2019-03-08T14:40:17.122Z,10.00
2019-03-08T14:42:49.332Z,9.90
2019-03-08T14:45:16.846Z,9.90
2019-03-08T14:47:44.322Z,9.90
2019-03-08T14:50:11.874Z,9.90
2019-03-08T14:52:39.335Z,9.80
2019-03-08T14:55:06.890Z,9.90
2019-03-08T14:57:34.354Z,9.90
2019-03-08T15:00:13.066Z,9.80
2019-03-08T15:02:40.546Z,9.80
2019-03-08T15:05:11.276Z,9.90
2019-03-08T15:07:37.252Z,9.80
2019-03-08T15:10:06.203Z,9.80
2019-03-08T15:12:33.069Z,9.90
2019-03-08T15:14:59.565Z,9.80
2019-03-08T15:17:29.018Z,9.80
2019-03-08T15:19:54.507Z,9.70
2019-03-08T15:22:21.970Z,9.80
2019-03-08T15:24:49.532Z,9.80
2019-03-08T15:27:17.775Z,9.70
2019-03-08T15:29:54.071Z,9.70
2019-03-08T15:32:13.529Z,9.80
2019-03-08T15:34:40.984Z,9.70
2019-03-08T15:37:08.479Z,9.80
2019-03-08T15:39:36.028Z,9.70
2019-03-08T15:42:03.632Z,9.60
2019-03-08T15:44:31.105Z,9.60
2019-03-08T15:46:59.442Z,9.70
2019-03-08T15:49:30.350Z,9.70
2019-03-08T15:51:55.053Z,9.60
2019-03-08T15:54:22.509Z,9.60
2019-03-08T15:56:50.020Z,9.60
2019-03-08T15:59:17.588Z,9.60
2019-03-08T16:01:45.144Z,9.60
2019-03-08T16:04:13.079Z,9.60
2019-03-08T16:06:43.975Z,9.50
2019-03-08T16:09:09.179Z,9.60
2019-03-08T16:11:37.773Z,9.40
2019-03-08T16:14:09.075Z,9.40
2019-03-08T16:16:33.483Z,9.40
2019-03-08T16:19:00.975Z,9.40
2019-03-08T16:21:29.223Z,9.40
2019-03-08T16:23:56.685Z,9.30
2019-03-08T16:26:25.375Z,9.40
2019-03-08T16:28:51.843Z,9.40
2019-03-08T16:31:21.738Z,9.40
2019-03-08T16:33:48.014Z,9.30
2019-03-08T16:36:18.717Z,9.20
2019-03-08T16:41:43.497Z,9.20
2019-03-08T16:44:27.751Z,9.40
2019-03-08T16:46:59.851Z,9.30
2019-03-08T16:52:30.848Z,9.20
2019-03-08T16:55:08.709Z,9.30
2019-03-08T16:57:46.833Z,9.20
2019-03-08T17:00:30.979Z,9.20
2019-03-08T17:03:00.088Z,9.30
2019-03-08T17:05:31.167Z,9.20
2019-03-08T17:07:58.656Z,9.20
2019-03-08T17:10:32.653Z,9.20
2019-03-08T17:13:11.848Z,9.20
2019-03-08T17:15:50.092Z,9.20
2019-03-08T17:18:18.374Z,9.10
2019-03-08T17:20:50.291Z,9.20
2019-03-08T17:23:17.756Z,9.20
2019-03-08T17:28:41.546Z,9.10
2019-03-08T17:31:14.015Z,9.00
2019-03-08T17:33:54.245Z,9.10
2019-03-08T17:36:21.710Z,9.10
2019-03-08T17:38:54.834Z,9.00
2019-03-08T17:41:35.090Z,9.10
2019-03-08T17:44:07.444Z,9.20
2019-03-08T17:46:40.680Z,9.10
2019-03-08T17:49:12.620Z,9.00
2019-03-08T17:51:43.200Z,9.00
2019-03-08T17:54:17.152Z,8.90
2019-03-08T17:56:47.585Z,8.90
2019-03-08T17:59:15.080Z,9.10
2019-03-08T18:01:48.289Z,9.00
2019-03-08T18:07:17.499Z,9.00
2019-03-08T18:09:49.546Z,9.00
2019-03-08T18:12:19.836Z,8.90
2019-03-08T18:14:47.348Z,9.00
2019-03-08T18:17:18.091Z,9.00
2019-03-08T18:20:01.196Z,9.00
2019-03-08T18:22:34.169Z,9.10
2019-03-08T18:25:09.765Z,9.00
2019-03-08T18:27:43.673Z,9.00
2019-03-08T18:33:09.207Z,9.10
2019-03-08T18:35:37.554Z,9.10
2019-03-08T18:38:15.685Z,9.10
2019-03-08T18:40:45.625Z,9.10
2019-03-08T18:46:06.326Z,9.10
2019-03-08T18:48:39.404Z,9.10
2019-03-08T18:51:22.595Z,9.10
2019-03-08T18:53:52.888Z,9.10
2019-03-08T18:56:22.939Z,9.10
2019-03-08T18:58:54.971Z,9.10
2019-03-08T19:01:28.018Z,9.10
2019-03-08T19:03:58.940Z,9.00
2019-03-08T19:06:29.788Z,9.10
2019-03-08T19:09:12.904Z,9.00
2019-03-08T19:11:41.942Z,9.10
2019-03-08T19:14:15.237Z,9.10
2019-03-08T19:16:48.300Z,9.10
2019-03-08T19:19:15.753Z,9.10
2019-03-08T19:21:45.042Z,9.10
2019-03-08T19:24:18.980Z,9.10
2019-03-08T19:26:46.449Z,9.10
2019-03-08T19:32:09.003Z,9.10
2019-03-08T19:34:42.039Z,9.00
2019-03-08T19:37:15.839Z,9.00
2019-03-08T19:40:00.541Z,9.00
2019-03-08T19:42:28.521Z,9.00
2019-03-08T19:44:59.454Z,9.00
2019-03-08T19:47:32.819Z,9.00
2019-03-08T19:50:06.685Z,9.00
2019-03-08T19:52:49.034Z,9.00
2019-03-08T19:55:17.857Z,9.00
2019-03-08T19:57:59.138Z,8.90
2019-03-08T20:00:33.277Z,8.90
2019-03-08T20:03:01.172Z,8.90
2019-03-08T20:08:22.886Z,9.00
2019-03-08T20:10:51.797Z,9.00
2019-03-08T20:16:15.623Z,8.90
2019-03-08T20:18:43.115Z,8.90
2019-03-08T20:21:12.172Z,8.90
2019-03-08T20:23:42.355Z,8.70
2019-03-08T20:26:16.634Z,8.70
2019-03-08T20:29:02.939Z,8.70
2019-03-08T20:31:49.118Z,8.60
2019-03-08T20:34:22.154Z,8.50
2019-03-08T20:37:04.502Z,8.40
2019-03-08T20:39:37.469Z,8.30
2019-03-08T20:42:04.940Z,8.20
2019-03-08T20:44:32.430Z,8.20
2019-03-08T20:47:04.857Z,8.20
2019-03-08T20:49:33.442Z,8.00
2019-03-08T20:52:00.917Z,8.00
2019-03-08T20:54:29.131Z,8.00
2019-03-08T20:56:56.626Z,8.00
2019-03-08T20:59:24.952Z,8.00
2019-03-08T21:01:51.569Z,8.00
2019-03-08T21:04:19.354Z,8.00
2019-03-08T21:06:47.614Z,8.10
2019-03-08T21:09:15.845Z,8.00
2019-03-08T21:11:43.365Z,8.00
2019-03-08T21:14:10.829Z,8.00
2019-03-08T21:16:39.064Z,8.00
2019-03-08T21:19:06.519Z,8.00
2019-03-08T21:21:33.973Z,8.10
2019-03-08T21:24:01.458Z,8.20
2019-03-08T21:26:29.051Z,8.20
2019-03-08T21:28:56.529Z,8.10
2019-03-08T21:31:24.760Z,8.10
2019-03-08T21:33:52.223Z,8.10
2019-03-08T21:36:19.678Z,8.10
2019-03-08T21:38:47.140Z,8.10
2019-03-08T21:41:14.597Z,8.10
2019-03-08T21:43:42.065Z,8.10
2019-03-08T21:46:09.532Z,8.20
2019-03-08T21:48:37.131Z,8.20
2019-03-08T21:51:05.385Z,8.20
2019-03-08T21:53:32.904Z,8.20
2019-03-08T21:56:02.216Z,8.10
2019-03-08T21:58:28.589Z,8.10
2019-03-08T22:00:56.047Z,8.10
2019-03-08T22:03:23.620Z,8.20
2019-03-08T22:05:51.183Z,8.10
2019-03-08T22:08:19.491Z,8.20
2019-03-08T22:10:48.153Z,8.10
2019-03-08T22:13:15.746Z,8.10
2019-03-08T22:15:44.016Z,8.10
2019-03-08T22:18:11.474Z,8.10
2019-03-08T22:20:39.030Z,8.00
2019-03-08T22:23:06.548Z,8.00
2019-03-08T22:25:34.045Z,8.00
2019-03-08T22:28:02.329Z,8.00
2019-03-08T22:30:29.793Z,8.00
2019-03-08T22:32:57.261Z,8.00
2019-03-08T22:35:24.751Z,8.00
2019-03-08T22:37:52.289Z,8.00
2019-03-08T22:40:21.343Z,8.00
2019-03-08T22:42:49.577Z,8.00
2019-03-08T22:45:17.795Z,8.00
2019-03-08T22:47:45.251Z,7.90
2019-03-08T22:50:12.780Z,8.00
2019-03-08T22:52:40.238Z,8.00
2019-03-08T22:55:09.346Z,7.90
2019-03-08T22:57:36.816Z,7.90
2019-03-08T23:00:25.700Z,7.90
2019-03-08T23:02:53.157Z,7.90
2019-03-08T23:05:20.629Z,7.90
2019-03-08T23:07:48.089Z,7.90
2019-03-08T23:10:15.549Z,7.90
2019-03-08T23:12:43.022Z,8.00
2019-03-08T23:15:10.468Z,7.90
2019-03-08T23:17:37.952Z,8.00
2019-03-08T23:20:05.464Z,8.00
2019-03-08T23:22:33.690Z,7.90
2019-03-08T23:25:01.148Z,7.90
2019-03-08T23:27:28.608Z,7.90
2019-03-08T23:29:56.112Z,8.00
2019-03-08T23:32:24.398Z,8.00
2019-03-08T23:34:52.671Z,8.00
2019-03-08T23:37:20.241Z,7.90
2019-03-08T23:39:48.577Z,8.00
2019-03-08T23:42:16.075Z,8.00
2019-03-08T23:44:43.577Z,8.00
2019-03-08T23:47:11.095Z,8.00
2019-03-08T23:49:38.574Z,8.00
2019-03-08T23:52:06.121Z,8.00
2019-03-08T23:54:33.685Z,8.00
2019-03-08T23:57:01.139Z,8.10
2019-03-08T23:59:28.621Z,8.10
